Terminal Aerodrome Forecast
Issued by NWS

Home | Current Version | Previous Version | Text Only | Print | Product List | Glossary On
Versions: 1 2 3 4 5 6 7 8 9 10 11 12 13 14 15 16 17
000
FTUS42 KTAE 191100
TAFABY
TAF
KABY 191120Z 1912/2012 06004KT P6SM BKN250
     FM191400 08005KT P6SM SCT120 BKN250 PROB30 1922/2002 5SM SHRA
      BKN060 OVC100
     FM200400 06003KT P6SM SCT250=

USA.gov is the U.S. government's official web portal to all federal, state and local government web resources and services.